createdAt,value
2023-03-29T00:00:12.353Z,2.92
2023-03-29T00:02:40.637Z,6.40
2023-03-29T00:05:12.385Z,5.22
2023-03-29T00:07:41.459Z,6.47
2023-03-29T00:10:11.457Z,7.53
2023-03-29T00:12:40.973Z,6.07
2023-03-29T00:15:09.990Z,9.68
2023-03-29T00:17:37.961Z,6.10
2023-03-29T00:20:10.116Z,6.57
2023-03-29T00:22:42.165Z,9.15
2023-03-29T00:25:10.953Z,4.57
2023-03-29T00:27:39.316Z,6.32
2023-03-29T00:30:10.133Z,6.40
2023-03-29T00:32:38.700Z,6.63
2023-03-29T00:35:07.578Z,9.38
2023-03-29T00:37:35.677Z,5.85
2023-03-29T00:40:08.429Z,4.72
2023-03-29T00:42:36.375Z,6.82
2023-03-29T00:45:07.316Z,6.85
2023-03-29T00:47:38.888Z,4.93
2023-03-29T00:50:12.441Z,7.50
2023-03-29T00:52:40.972Z,5.18
2023-03-29T00:55:13.762Z,7.72
2023-03-29T00:57:46.785Z,6.57
2023-03-29T01:00:18.202Z,7.28
2023-03-29T01:02:51.093Z,6.82
2023-03-29T01:05:22.645Z,4.53
2023-03-29T01:07:54.943Z,7.15
2023-03-29T01:10:27.579Z,3.35
2023-03-29T01:13:01.522Z,7.32
2023-03-29T01:15:30.045Z,3.55
2023-03-29T01:18:01.975Z,5.72
2023-03-29T01:20:43.366Z,7.27
2023-03-29T01:23:23.079Z,6.25
2023-03-29T01:25:58.143Z,6.07
2023-03-29T01:28:31.386Z,10.63
2023-03-29T01:31:04.053Z,12.80
2023-03-29T01:33:34.820Z,3.45
2023-03-29T01:36:08.152Z,6.75
2023-03-29T01:38:39.658Z,3.95
2023-03-29T01:41:07.958Z,5.20
2023-03-29T01:43:40.620Z,5.28
2023-03-29T01:46:10.809Z,5.40
2023-03-29T01:48:45.655Z,4.93
2023-03-29T01:51:16.990Z,12.43
2023-03-29T01:53:48.435Z,4.15
2023-03-29T01:56:19.317Z,5.70
2023-03-29T01:58:53.864Z,9.15
2023-03-29T02:01:26.485Z,5.10
2023-03-29T02:03:56.323Z,4.43
2023-03-29T02:06:28.099Z,4.68
2023-03-29T02:08:56.833Z,4.65
2023-03-29T02:11:27.060Z,4.30
2023-03-29T02:13:56.617Z,2.80
2023-03-29T02:16:25.526Z,6.93
2023-03-29T02:18:56.491Z,5.68
2023-03-29T02:21:27.712Z,3.65
2023-03-29T02:23:56.850Z,5.30
2023-03-29T02:26:25.313Z,8.82
2023-03-29T02:28:54.093Z,4.32
2023-03-29T02:31:26.258Z,5.43
2023-03-29T02:33:58.702Z,6.82
2023-03-29T02:36:31.143Z,7.60
2023-03-29T02:38:59.965Z,6.53
2023-03-29T02:41:28.342Z,7.65
2023-03-29T02:43:57.102Z,4.63
2023-03-29T02:46:26.757Z,5.97
2023-03-29T02:48:55.745Z,7.68
2023-03-29T02:51:27.666Z,5.47
2023-03-29T02:53:59.322Z,7.95
2023-03-29T02:56:27.493Z,7.50
2023-03-29T02:58:55.370Z,6.35
2023-03-29T03:01:23.696Z,8.98
2023-03-29T03:03:53.684Z,5.05
2023-03-29T03:06:22.182Z,4.75
2023-03-29T03:08:51.442Z,4.13
2023-03-29T03:11:19.358Z,6.90
2023-03-29T03:13:47.622Z,4.95
2023-03-29T03:16:15.602Z,4.50
2023-03-29T03:18:46.001Z,6.13
2023-03-29T03:21:15.542Z,5.93
2023-03-29T03:23:43.586Z,4.65
2023-03-29T03:26:12.537Z,9.00
2023-03-29T03:28:42.079Z,6.50
2023-03-29T03:31:17.598Z,3.45
2023-03-29T03:34:05.462Z,3.40
2023-03-29T03:36:42.713Z,3.22
2023-03-29T03:39:13.102Z,4.10
2023-03-29T03:41:41.260Z,5.53
2023-03-29T03:44:09.223Z,5.38
2023-03-29T03:46:38.268Z,7.70
2023-03-29T03:49:06.435Z,6.43
2023-03-29T03:51:39.576Z,5.22
2023-03-29T03:54:08.937Z,3.22
2023-03-29T03:56:37.414Z,6.38
2023-03-29T03:59:05.868Z,6.60
2023-03-29T04:02:02.999Z,7.47
2023-03-29T04:04:31.492Z,6.90
2023-03-29T04:07:18.032Z,7.15
2023-03-29T04:10:02.920Z,6.80
2023-03-29T04:12:31.069Z,5.45
2023-03-29T04:14:59.909Z,8.55
2023-03-29T04:17:28.650Z,6.18
2023-03-29T04:20:01.422Z,5.75
2023-03-29T04:22:33.263Z,3.25
2023-03-29T04:25:02.745Z,3.90
2023-03-29T04:27:36.312Z,5.95
2023-03-29T04:30:11.027Z,6.80
2023-03-29T04:33:01.508Z,9.52
2023-03-29T04:35:30.107Z,7.10
2023-03-29T04:37:58.081Z,7.60
2023-03-29T04:40:28.951Z,6.28
2023-03-29T04:43:19.060Z,7.28
2023-03-29T04:45:56.820Z,7.57
2023-03-29T04:48:43.678Z,7.93
2023-03-29T04:51:12.824Z,7.30
2023-03-29T04:53:41.744Z,8.52
2023-03-29T04:56:11.425Z,4.53
2023-03-29T04:59:02.615Z,13.07
2023-03-29T05:01:30.972Z,11.20
2023-03-29T05:03:59.837Z,10.77
2023-03-29T05:06:35.597Z,6.63
2023-03-29T05:09:04.905Z,7.18
2023-03-29T05:11:44.919Z,6.70
2023-03-29T05:14:13.856Z,4.97
2023-03-29T05:16:42.570Z,4.60
2023-03-29T05:19:11.344Z,4.07
2023-03-29T05:21:45.413Z,2.70
2023-03-29T05:24:16.575Z,15.32
2023-03-29T05:26:58.013Z,7.28
2023-03-29T05:29:28.063Z,7.50
2023-03-29T05:32:08.234Z,6.35
2023-03-29T05:34:37.099Z,10.55
2023-03-29T05:37:06.115Z,6.35
2023-03-29T05:39:46.321Z,9.55
2023-03-29T05:42:16.159Z,7.45
2023-03-29T05:44:54.539Z,11.30
2023-03-29T05:47:22.802Z,7.63
2023-03-29T05:49:51.534Z,5.22
2023-03-29T05:52:23.816Z,6.22
2023-03-29T05:54:56.912Z,5.28
2023-03-29T05:57:26.721Z,5.47
2023-03-29T05:59:55.047Z,2.40
2023-03-29T06:02:24.823Z,3.53
2023-03-29T06:04:55.555Z,7.10
2023-03-29T06:07:24.737Z,6.93
2023-03-29T06:10:23.533Z,6.00
2023-03-29T06:12:59.174Z,6.68
2023-03-29T06:15:27.437Z,8.07
2023-03-29T06:18:01.098Z,6.90
2023-03-29T06:20:29.270Z,8.73
2023-03-29T06:23:03.321Z,5.57
2023-03-29T06:25:31.916Z,13.32
2023-03-29T06:28:01.555Z,6.60
2023-03-29T06:30:29.860Z,7.10
2023-03-29T06:33:01.035Z,9.07
2023-03-29T06:35:48.046Z,7.65
2023-03-29T06:38:20.856Z,5.55
2023-03-29T06:41:04.044Z,9.45
2023-03-29T06:43:49.700Z,8.98
2023-03-29T06:46:17.684Z,3.78
2023-03-29T06:48:55.473Z,5.95
2023-03-29T06:51:24.905Z,5.43
2023-03-29T06:53:52.937Z,12.43
2023-03-29T06:56:22.558Z,10.35
2023-03-29T06:59:01.131Z,7.45
2023-03-29T07:01:37.974Z,9.65
2023-03-29T07:04:14.794Z,5.25
2023-03-29T07:07:02.538Z,8.52
2023-03-29T07:09:35.902Z,13.13
2023-03-29T07:12:36.165Z,8.32
2023-03-29T07:15:06.481Z,9.00
2023-03-29T07:17:53.307Z,10.35
2023-03-29T07:20:22.755Z,8.20
2023-03-29T07:22:59.185Z,8.02
2023-03-29T07:25:27.599Z,7.78
2023-03-29T07:27:55.876Z,10.05
2023-03-29T07:30:30.297Z,5.70
2023-03-29T07:33:12.429Z,8.70
2023-03-29T07:35:47.833Z,10.70
2023-03-29T07:38:16.524Z,7.30
2023-03-29T07:40:49.780Z,10.40
2023-03-29T07:43:38.045Z,6.53
2023-03-29T07:46:10.076Z,7.22
2023-03-29T07:48:39.398Z,6.60
2023-03-29T07:51:09.745Z,6.35
2023-03-29T07:53:50.188Z,7.22
2023-03-29T07:56:38.567Z,8.38
2023-03-29T07:59:29.919Z,4.97
2023-03-29T08:02:15.474Z,8.45
2023-03-29T08:04:48.373Z,8.45
2023-03-29T08:07:19.153Z,6.10
2023-03-29T08:10:06.905Z,9.95
2023-03-29T08:12:53.725Z,12.70
2023-03-29T08:15:29.100Z,10.85
2023-03-29T08:17:58.684Z,8.27
2023-03-29T08:20:27.573Z,6.40
2023-03-29T08:23:02.249Z,10.88
2023-03-29T08:25:30.577Z,8.27
2023-03-29T08:27:59.546Z,10.82
2023-03-29T08:30:48.167Z,9.05
2023-03-29T08:33:17.913Z,9.77
2023-03-29T08:35:51.439Z,8.43
2023-03-29T08:38:23.156Z,11.20
2023-03-29T08:40:52.128Z,7.40
2023-03-29T08:43:27.136Z,8.40
2023-03-29T08:46:24.566Z,12.50
2023-03-29T08:48:56.891Z,9.75
2023-03-29T08:51:29.381Z,9.82
2023-03-29T08:53:59.724Z,8.18
2023-03-29T08:56:37.573Z,10.43
2023-03-29T08:59:17.742Z,8.18
2023-03-29T09:01:48.456Z,11.40
2023-03-29T09:04:21.803Z,7.50
2023-03-29T09:06:59.615Z,9.50
2023-03-29T09:09:35.265Z,9.70
2023-03-29T09:12:22.684Z,8.43
2023-03-29T09:14:59.028Z,8.77
2023-03-29T09:17:36.946Z,7.53
2023-03-29T09:20:21.369Z,6.25
2023-03-29T09:22:52.973Z,8.60
2023-03-29T09:25:24.931Z,8.38
2023-03-29T09:28:00.131Z,9.43
2023-03-29T09:30:51.252Z,12.40
2023-03-29T09:33:24.564Z,10.60
2023-03-29T09:36:08.001Z,8.52
2023-03-29T09:38:41.010Z,10.52
2023-03-29T09:41:19.410Z,5.47
2023-03-29T09:43:48.548Z,9.27
2023-03-29T09:46:24.048Z,11.43
2023-03-29T09:48:52.503Z,8.75
2023-03-29T09:51:25.014Z,8.75
2023-03-29T09:53:53.094Z,6.80
2023-03-29T09:56:34.072Z,8.60
2023-03-29T09:59:12.240Z,8.60
2023-03-29T10:01:42.541Z,8.00
2023-03-29T10:04:12.046Z,8.43
2023-03-29T10:06:47.162Z,8.32
2023-03-29T10:09:17.538Z,9.40
2023-03-29T10:11:48.981Z,8.75
2023-03-29T10:14:19.304Z,7.90
2023-03-29T10:16:47.903Z,6.80
2023-03-29T10:19:19.864Z,7.15
2023-03-29T10:21:50.251Z,7.35
2023-03-29T10:24:22.551Z,10.88
2023-03-29T10:26:55.523Z,7.40
2023-03-29T10:29:24.312Z,8.55
2023-03-29T10:31:53.137Z,6.90
2023-03-29T10:34:25.290Z,8.23
2023-03-29T10:36:58.563Z,9.35
2023-03-29T10:39:28.900Z,9.80
2023-03-29T10:41:57.150Z,9.30
2023-03-29T10:46:10.949Z,9.10
2023-03-29T10:48:39.328Z,8.88
2023-03-29T10:51:07.812Z,8.15
2023-03-29T10:53:37.747Z,8.30
2023-03-29T10:56:24.514Z,10.02
2023-03-29T10:59:10.189Z,9.93
2023-03-29T11:01:48.061Z,10.35
2023-03-29T11:04:23.873Z,9.85
2023-03-29T11:06:59.851Z,7.63
2023-03-29T11:09:41.612Z,7.20
2023-03-29T11:12:16.653Z,3.72
2023-03-29T11:14:55.034Z,7.32
2023-03-29T11:17:33.437Z,5.00
2023-03-29T11:20:12.702Z,5.10
2023-03-29T11:22:47.668Z,3.75
2023-03-29T11:25:29.123Z,4.68
2023-03-29T11:28:03.826Z,4.15
2023-03-29T11:30:36.881Z,5.50
2023-03-29T11:33:22.214Z,5.38
2023-03-29T11:35:56.335Z,6.32
2023-03-29T11:38:29.215Z,9.07
2023-03-29T11:41:02.666Z,5.60
2023-03-29T11:43:35.119Z,6.03
2023-03-29T11:46:09.257Z,6.93
2023-03-29T11:48:44.283Z,5.05
2023-03-29T11:51:15.783Z,4.97
2023-03-29T11:53:50.346Z,5.95
2023-03-29T11:56:24.763Z,5.65
2023-03-29T11:58:59.602Z,7.90
2023-03-29T12:01:32.086Z,10.48
2023-03-29T12:04:04.747Z,3.92
2023-03-29T12:06:37.228Z,4.65
2023-03-29T12:09:10.878Z,9.27
2023-03-29T12:11:41.696Z,7.70
2023-03-29T12:14:12.760Z,6.03
2023-03-29T12:16:43.293Z,6.10
2023-03-29T12:19:19.267Z,6.13
2023-03-29T12:21:47.864Z,4.50
2023-03-29T12:24:19.022Z,4.32
2023-03-29T12:26:58.861Z,5.28
2023-03-29T12:29:41.557Z,5.95
2023-03-29T12:32:23.267Z,4.65
2023-03-29T12:35:15.492Z,6.60
2023-03-29T12:38:17.211Z,4.85
2023-03-29T12:41:22.231Z,7.80
2023-03-29T12:44:07.723Z,3.75
2023-03-29T12:46:42.227Z,6.22
2023-03-29T12:53:03.855Z,7.32
2023-03-29T12:55:35.575Z,5.40
2023-03-29T12:58:06.586Z,7.47
2023-03-29T13:00:43.837Z,5.32
2023-03-29T13:03:24.013Z,6.03
2023-03-29T13:06:01.413Z,4.38
2023-03-29T13:08:35.720Z,6.93
2023-03-29T13:11:04.493Z,7.35
2023-03-29T13:13:35.126Z,10.00
2023-03-29T13:16:15.829Z,7.88
2023-03-29T13:19:00.600Z,4.72
2023-03-29T13:21:36.733Z,6.97
2023-03-29T13:24:24.910Z,7.53
2023-03-29T13:26:58.347Z,6.53
2023-03-29T13:29:47.887Z,5.40
2023-03-29T13:32:27.599Z,8.07
2023-03-29T13:34:59.439Z,6.75
2023-03-29T13:37:36.726Z,4.22
2023-03-29T13:40:32.980Z,5.90
2023-03-29T13:43:02.021Z,6.93
2023-03-29T13:45:31.496Z,8.82
2023-03-29T13:48:05.706Z,7.57
2023-03-29T13:50:37.542Z,6.30
2023-03-29T13:53:11.842Z,6.18
2023-03-29T13:55:45.730Z,10.98
2023-03-29T13:58:15.862Z,5.72
2023-03-29T14:00:48.386Z,6.90
2023-03-29T14:03:18.563Z,4.38
2023-03-29T14:05:50.781Z,5.25
2023-03-29T14:08:23.218Z,5.03
2023-03-29T14:10:53.999Z,3.45
2023-03-29T14:13:24.423Z,5.85
2023-03-29T14:15:54.790Z,6.95
2023-03-29T14:18:24.377Z,5.60
2023-03-29T14:20:55.085Z,7.47
2023-03-29T14:23:25.143Z,6.22
2023-03-29T14:25:54.603Z,5.35
2023-03-29T14:28:23.846Z,5.95
2023-03-29T14:30:52.851Z,6.00
2023-03-29T14:33:28.316Z,5.18
2023-03-29T14:35:56.909Z,6.32
2023-03-29T14:38:26.286Z,5.03
2023-03-29T14:40:59.273Z,5.95
2023-03-29T14:45:59.023Z,6.30
2023-03-29T14:48:28.027Z,6.60
2023-03-29T14:50:56.274Z,7.80
2023-03-29T14:53:24.610Z,8.50
2023-03-29T14:55:55.611Z,7.95
2023-03-29T14:58:25.377Z,6.63
2023-03-29T15:00:54.020Z,5.72
2023-03-29T15:03:26.354Z,8.07
2023-03-29T15:05:56.522Z,8.02
2023-03-29T15:08:31.248Z,7.10
2023-03-29T15:11:01.257Z,8.75
2023-03-29T15:13:29.911Z,9.90
2023-03-29T15:16:00.064Z,6.60
2023-03-29T15:18:31.161Z,8.88
2023-03-29T15:20:59.917Z,8.95
2023-03-29T15:23:28.023Z,8.70
2023-03-29T15:25:58.483Z,6.57
2023-03-29T15:28:31.178Z,6.90
2023-03-29T15:31:07.868Z,9.13
2023-03-29T15:33:37.988Z,12.00
2023-03-29T15:36:07.643Z,8.18
2023-03-29T15:38:43.273Z,9.60
2023-03-29T15:41:14.700Z,9.45
2023-03-29T15:43:44.673Z,8.38
2023-03-29T15:46:13.854Z,8.20
2023-03-29T15:48:42.280Z,8.60
2023-03-29T15:51:11.777Z,6.70
2023-03-29T15:53:39.993Z,11.02
2023-03-29T15:56:10.199Z,8.73
2023-03-29T15:58:38.554Z,7.47
2023-03-29T16:01:16.074Z,8.10
2023-03-29T16:03:47.638Z,9.93
2023-03-29T16:06:17.591Z,7.28
2023-03-29T16:08:46.118Z,11.65
2023-03-29T16:11:14.255Z,15.57
2023-03-29T16:13:42.409Z,5.88
2023-03-29T16:16:12.733Z,9.65
2023-03-29T16:18:40.894Z,8.48
2023-03-29T16:21:12.634Z,8.15
2023-03-29T16:23:40.830Z,9.98
2023-03-29T16:26:09.426Z,10.05
2023-03-29T16:28:37.745Z,9.55
2023-03-29T16:31:06.200Z,9.43
2023-03-29T16:33:35.597Z,9.18
2023-03-29T16:36:03.666Z,8.82
2023-03-29T16:38:31.885Z,9.52
2023-03-29T16:41:00.267Z,9.02
2023-03-29T16:43:28.898Z,9.57
2023-03-29T16:45:57.175Z,8.82
2023-03-29T16:48:25.374Z,10.25
2023-03-29T16:50:54.873Z,7.05
2023-03-29T16:53:23.711Z,9.63
2023-03-29T16:55:51.761Z,8.88
2023-03-29T16:58:19.777Z,12.95
2023-03-29T17:00:48.609Z,12.77
2023-03-29T17:03:17.045Z,7.30
2023-03-29T17:05:48.392Z,7.78
2023-03-29T17:08:17.870Z,8.70
2023-03-29T17:10:46.456Z,9.00
2023-03-29T17:13:14.567Z,9.32
2023-03-29T17:15:45.819Z,9.80
2023-03-29T17:18:14.174Z,11.38
2023-03-29T17:20:42.335Z,8.98
2023-03-29T17:23:11.105Z,8.35
2023-03-29T17:25:40.719Z,9.77
2023-03-29T17:28:08.987Z,8.77
2023-03-29T17:30:37.331Z,13.25
2023-03-29T17:33:05.886Z,10.10
2023-03-29T17:35:34.009Z,10.45
2023-03-29T17:38:02.989Z,9.90
2023-03-29T17:40:31.236Z,9.00
2023-03-29T17:43:00.703Z,12.55
2023-03-29T17:45:28.884Z,8.75
2023-03-29T17:47:57.111Z,9.85
2023-03-29T17:50:25.172Z,11.73
2023-03-29T17:52:53.256Z,10.15
2023-03-29T17:55:21.413Z,8.93
2023-03-29T17:57:50.082Z,10.80
2023-03-29T18:00:20.710Z,15.60
2023-03-29T18:02:49.062Z,12.15
2023-03-29T18:05:17.973Z,11.07
2023-03-29T18:07:46.232Z,12.00
2023-03-29T18:10:14.338Z,10.30
2023-03-29T18:12:42.387Z,9.70
2023-03-29T18:15:11.336Z,9.13
2023-03-29T18:17:40.647Z,11.07
2023-03-29T18:20:11.919Z,9.77
2023-03-29T18:22:41.406Z,9.10
2023-03-29T18:25:11.210Z,14.05
2023-03-29T18:27:39.539Z,9.70
2023-03-29T18:30:09.360Z,10.02
2023-03-29T18:32:37.692Z,8.18
2023-03-29T18:35:08.356Z,11.77
2023-03-29T18:37:36.447Z,11.20
2023-03-29T18:40:07.928Z,8.63
2023-03-29T18:42:36.055Z,9.57
2023-03-29T18:45:04.679Z,9.43
2023-03-29T18:47:33.315Z,10.05
2023-03-29T18:50:02.790Z,9.13
2023-03-29T18:52:32.360Z,10.60
2023-03-29T18:55:00.515Z,11.07
2023-03-29T18:57:28.687Z,11.30
2023-03-29T18:59:56.784Z,11.88
2023-03-29T19:02:24.794Z,14.38
2023-03-29T19:04:52.875Z,11.02
2023-03-29T19:07:22.036Z,10.80
2023-03-29T19:09:51.672Z,15.35
2023-03-29T19:12:19.730Z,14.02
2023-03-29T19:14:47.777Z,13.45
2023-03-29T19:17:16.104Z,13.32
2023-03-29T19:19:44.078Z,14.60
2023-03-29T19:22:12.042Z,13.63
2023-03-29T19:24:40.169Z,12.40
2023-03-29T19:27:11.385Z,12.80
2023-03-29T19:29:41.112Z,16.52
2023-03-29T19:32:09.076Z,14.82
2023-03-29T19:34:37.262Z,12.57
2023-03-29T19:37:05.234Z,13.88
2023-03-29T19:39:33.310Z,12.55
2023-03-29T19:42:01.481Z,13.18
2023-03-29T19:44:31.037Z,16.08
2023-03-29T19:46:59.274Z,15.23
2023-03-29T19:49:27.430Z,15.43
2023-03-29T19:51:57.413Z,15.35
2023-03-29T19:54:26.345Z,13.88
2023-03-29T19:56:57.418Z,16.60
2023-03-29T19:59:25.512Z,12.80
2023-03-29T20:01:56.921Z,13.30
2023-03-29T20:04:25.931Z,14.98
2023-03-29T20:06:53.969Z,12.63
2023-03-29T20:09:22.189Z,15.57
2023-03-29T20:11:50.374Z,13.20
2023-03-29T20:14:18.360Z,16.38
2023-03-29T20:16:46.666Z,18.65
2023-03-29T20:19:17.474Z,15.48
2023-03-29T20:21:45.726Z,18.23
2023-03-29T20:24:13.719Z,18.08
2023-03-29T20:26:41.930Z,14.25
2023-03-29T20:29:10.039Z,16.42
2023-03-29T20:31:38.037Z,15.45
2023-03-29T20:34:06.100Z,12.75
2023-03-29T20:36:35.795Z,14.77
2023-03-29T20:39:04.576Z,13.48
2023-03-29T20:41:33.860Z,15.93
2023-03-29T20:44:02.838Z,13.73
2023-03-29T20:46:34.206Z,12.13
2023-03-29T20:49:02.893Z,13.55
2023-03-29T20:51:32.170Z,18.73
2023-03-29T20:54:05.994Z,14.90
2023-03-29T20:56:35.448Z,14.77
2023-03-29T20:59:04.081Z,13.88
2023-03-29T21:01:32.648Z,16.15
2023-03-29T21:04:00.844Z,14.52
2023-03-29T21:06:28.892Z,13.35
2023-03-29T21:08:57.482Z,14.13
2023-03-29T21:11:27.608Z,14.60
2023-03-29T21:13:55.635Z,11.77
2023-03-29T21:16:25.432Z,13.60
2023-03-29T21:18:54.317Z,11.52
2023-03-29T21:21:22.998Z,13.45
2023-03-29T21:23:50.907Z,11.55
2023-03-29T21:26:19.084Z,15.82
2023-03-29T21:28:48.724Z,12.05
2023-03-29T21:31:16.947Z,14.13
2023-03-29T21:33:44.995Z,15.45
2023-03-29T21:36:13.146Z,13.18
2023-03-29T21:38:41.543Z,10.52
2023-03-29T21:41:10.817Z,11.07
2023-03-29T21:43:38.905Z,11.30
2023-03-29T21:46:08.607Z,10.57
2023-03-29T21:48:36.900Z,16.48
2023-03-29T21:51:06.487Z,12.10
2023-03-29T21:53:34.664Z,11.77
2023-03-29T21:56:03.091Z,15.77
2023-03-29T21:58:31.225Z,10.45
2023-03-29T22:00:59.276Z,10.80
2023-03-29T22:03:28.704Z,9.85
2023-03-29T22:06:01.222Z,11.98
2023-03-29T22:08:29.747Z,13.50
2023-03-29T22:10:58.330Z,12.90
2023-03-29T22:13:27.267Z,12.50
2023-03-29T22:15:58.614Z,10.80
2023-03-29T22:18:30.196Z,10.70
2023-03-29T22:20:58.668Z,11.50
2023-03-29T22:23:26.595Z,13.43
2023-03-29T22:25:54.751Z,13.13
2023-03-29T22:28:22.920Z,14.27
2023-03-29T22:30:51.058Z,14.30
2023-03-29T22:33:19.133Z,10.93
2023-03-29T22:35:48.624Z,13.68
2023-03-29T22:38:16.560Z,15.20
2023-03-29T22:40:44.682Z,10.68
2023-03-29T22:43:12.570Z,10.15
2023-03-29T22:45:40.618Z,12.23
2023-03-29T22:48:08.756Z,11.63
2023-03-29T22:50:36.742Z,12.48
2023-03-29T22:53:06.089Z,13.20
2023-03-29T22:55:34.110Z,13.35
2023-03-29T22:58:02.061Z,13.02
2023-03-29T23:00:30.056Z,12.07
2023-03-29T23:02:58.256Z,12.82
2023-03-29T23:05:26.469Z,11.40
2023-03-29T23:07:55.806Z,11.07
2023-03-29T23:10:28.946Z,12.88
2023-03-29T23:13:08.854Z,12.43
2023-03-29T23:15:37.378Z,12.02
2023-03-29T23:18:06.295Z,13.32
2023-03-29T23:20:34.383Z,12.48
2023-03-29T23:23:02.522Z,11.80
2023-03-29T23:25:32.147Z,12.38
2023-03-29T23:28:00.202Z,14.30
2023-03-29T23:30:29.773Z,12.88
2023-03-29T23:32:58.259Z,11.85
2023-03-29T23:35:26.552Z,15.13
2023-03-29T23:37:54.507Z,13.07
2023-03-29T23:40:22.709Z,15.32
2023-03-29T23:42:53.057Z,14.15
2023-03-29T23:45:21.040Z,12.45
2023-03-29T23:47:48.981Z,11.98
2023-03-29T23:50:17.143Z,13.13
2023-03-29T23:52:46.674Z,12.13
2023-03-29T23:55:15.582Z,14.82
2023-03-29T23:57:44.003Z,12.40
